sensor_id;sensor_type;location;lat;lon;timestamp;pressure;altitude;pressure_sealevel;temperature;humidity
9746;BME280;4912;50.836;12.958;2024-03-02T00:00:23;96761.59;;;10.43;100.00
9746;BME280;4912;50.836;12.958;2024-03-02T00:02:54;96755.50;;;10.34;100.00
9746;BME280;4912;50.836;12.958;2024-03-02T00:05:25;96760.31;;;10.39;100.00
9746;BME280;4912;50.836;12.958;2024-03-02T00:07:59;96746.78;;;10.41;100.00
9746;BME280;4912;50.836;12.958;2024-03-02T00:10:36;96744.78;;;10.41;100.00
9746;BME280;4912;50.836;12.958;2024-03-02T00:13:09;96739.00;;;10.45;100.00
9746;BME280;4912;50.836;12.958;2024-03-02T00:15:46;96739.75;;;10.45;100.00
9746;BME280;4912;50.836;12.958;2024-03-02T00:18:26;96750.06;;;10.45;100.00
9746;BME280;4912;50.836;12.958;2024-03-02T00:20:58;96742.53;;;10.45;100.00
9746;BME280;4912;50.836;12.958;2024-03-02T00:23:30;96744.53;;;10.45;100.00
9746;BME280;4912;50.836;12.958;2024-03-02T00:26:02;96745.53;;;10.42;100.00
9746;BME280;4912;50.836;12.958;2024-03-02T00:28:36;96739.22;;;10.36;100.00
9746;BME280;4912;50.836;12.958;2024-03-02T00:31:10;96733.91;;;10.38;100.00
9746;BME280;4912;50.836;12.958;2024-03-02T00:33:42;96733.72;;;10.41;100.00
9746;BME280;4912;50.836;12.958;2024-03-02T00:36:15;96739.50;;;10.43;100.00
9746;BME280;4912;50.836;12.958;2024-03-02T00:38:47;96738.03;;;10.48;100.00
9746;BME280;4912;50.836;12.958;2024-03-02T00:41:24;96741.03;;;10.50;100.00
9746;BME280;4912;50.836;12.958;2024-03-02T00:43:58;96741.28;;;10.46;100.00
9746;BME280;4912;50.836;12.958;2024-03-02T00:46:34;96743.00;;;10.44;100.00
9746;BME280;4912;50.836;12.958;2024-03-02T00:49:10;96747.25;;;10.39;100.00
9746;BME280;4912;50.836;12.958;2024-03-02T00:51:46;96745.47;;;10.31;100.00
9746;BME280;4912;50.836;12.958;2024-03-02T00:54:20;96748.38;;;10.21;100.00
9746;BME280;4912;50.836;12.958;2024-03-02T00:56:53;96747.56;;;10.15;100.00
9746;BME280;4912;50.836;12.958;2024-03-02T00:59:25;96753.09;;;10.15;100.00
9746;BME280;4912;50.836;12.958;2024-03-02T01:01:59;96743.09;;;10.18;100.00
9746;BME280;4912;50.836;12.958;2024-03-02T01:04:30;96741.28;;;10.15;100.00
9746;BME280;4912;50.836;12.958;2024-03-02T01:07:01;96741.34;;;10.20;100.00
9746;BME280;4912;50.836;12.958;2024-03-02T01:09:32;96743.56;;;10.16;100.00
9746;BME280;4912;50.836;12.958;2024-03-02T01:12:03;96745.56;;;10.16;100.00
9746;BME280;4912;50.836;12.958;2024-03-02T01:14:33;96733.75;;;10.15;100.00
9746;BME280;4912;50.836;12.958;2024-03-02T01:17:07;96741.03;;;10.13;100.00
9746;BME280;4912;50.836;12.958;2024-03-02T01:19:37;96736.50;;;10.15;100.00
9746;BME280;4912;50.836;12.958;2024-03-02T01:22:12;96731.97;;;10.12;100.00
9746;BME280;4912;50.836;12.958;2024-03-02T01:24:43;96731.97;;;10.12;100.00
9746;BME280;4912;50.836;12.958;2024-03-02T01:27:16;96734.94;;;10.09;100.00
9746;BME280;4912;50.836;12.958;2024-03-02T01:29:47;96733.41;;;10.08;100.00
9746;BME280;4912;50.836;12.958;2024-03-02T01:32:20;96720.13;;;10.06;100.00
9746;BME280;4912;50.836;12.958;2024-03-02T01:34:54;96729.91;;;10.07;100.00
9746;BME280;4912;50.836;12.958;2024-03-02T01:37:24;96726.16;;;10.10;100.00
9746;BME280;4912;50.836;12.958;2024-03-02T01:39:55;96724.69;;;10.15;100.00
9746;BME280;4912;50.836;12.958;2024-03-02T01:42:26;96730.53;;;10.17;100.00
9746;BME280;4912;50.836;12.958;2024-03-02T01:44:57;96729.75;;;10.16;100.00
9746;BME280;4912;50.836;12.958;2024-03-02T01:47:31;96723.94;;;10.14;100.00
9746;BME280;4912;50.836;12.958;2024-03-02T01:50:03;96716.16;;;10.13;100.00
9746;BME280;4912;50.836;12.958;2024-03-02T01:52:34;96721.88;;;10.09;100.00
9746;BME280;4912;50.836;12.958;2024-03-02T01:55:05;96723.63;;;10.07;100.00
9746;BME280;4912;50.836;12.958;2024-03-02T01:57:38;96714.59;;;10.06;100.00
9746;BME280;4912;50.836;12.958;2024-03-02T02:00:10;96714.84;;;10.08;100.00
9746;BME280;4912;50.836;12.958;2024-03-02T02:02:44;96715.84;;;10.05;100.00
9746;BME280;4912;50.836;12.958;2024-03-02T02:05:15;96716.03;;;10.02;100.00
9746;BME280;4912;50.836;12.958;2024-03-02T02:07:46;96709.78;;;10.01;100.00
9746;BME280;4912;50.836;12.958;2024-03-02T02:10:19;96723.03;;;9.97;100.00
9746;BME280;4912;50.836;12.958;2024-03-02T02:12:50;96713.75;;;9.95;100.00
9746;BME280;4912;50.836;12.958;2024-03-02T02:15:22;96714.75;;;9.97;100.00
9746;BME280;4912;50.836;12.958;2024-03-02T02:17:58;96710.25;;;10.00;100.00
9746;BME280;4912;50.836;12.958;2024-03-02T02:20:29;96711.78;;;10.01;100.00
9746;BME280;4912;50.836;12.958;2024-03-02T02:23:01;96706.03;;;10.04;100.00
9746;BME280;4912;50.836;12.958;2024-03-02T02:25:32;96709.31;;;10.08;100.00
9746;BME280;4912;50.836;12.958;2024-03-02T02:28:09;96712.63;;;10.12;100.00
9746;BME280;4912;50.836;12.958;2024-03-02T02:30:39;96702.81;;;10.11;100.00
9746;BME280;4912;50.836;12.958;2024-03-02T02:33:11;96703.53;;;10.06;100.00
9746;BME280;4912;50.836;12.958;2024-03-02T02:35:42;96697.50;;;10.08;100.00
9746;BME280;4912;50.836;12.958;2024-03-02T02:38:15;96696.97;;;10.04;100.00
9746;BME280;4912;50.836;12.958;2024-03-02T02:40:49;96703.50;;;10.01;100.00
9746;BME280;4912;50.836;12.958;2024-03-02T02:43:20;96700.72;;;10.01;100.00
9746;BME280;4912;50.836;12.958;2024-03-02T02:45:51;96709.78;;;10.01;100.00
9746;BME280;4912;50.836;12.958;2024-03-02T02:48:22;96704.78;;;10.05;100.00
9746;BME280;4912;50.836;12.958;2024-03-02T02:50:53;96706.53;;;10.08;100.00
9746;BME280;4912;50.836;12.958;2024-03-02T02:53:32;96702.06;;;10.11;100.00
9746;BME280;4912;50.836;12.958;2024-03-02T02:56:07;96700.81;;;10.12;100.00
9746;BME280;4912;50.836;12.958;2024-03-02T02:58:40;96697.53;;;10.13;100.00
9746;BME280;4912;50.836;12.958;2024-03-02T03:01:11;96701.63;;;10.18;100.00
9746;BME280;4912;50.836;12.958;2024-03-02T03:03:42;96700.16;;;10.22;100.00
9746;BME280;4912;50.836;12.958;2024-03-02T03:06:13;96707.19;;;10.23;100.00
9746;BME280;4912;50.836;12.958;2024-03-02T03:08:47;96703.69;;;10.23;100.00
9746;BME280;4912;50.836;12.958;2024-03-02T03:11:18;96703.16;;;10.19;100.00
9746;BME280;4912;50.836;12.958;2024-03-02T03:13:52;96698.13;;;10.17;100.00
9746;BME280;4912;50.836;12.958;2024-03-02T03:16:24;96703.66;;;10.17;100.00
9746;BME280;4912;50.836;12.958;2024-03-02T03:18:55;96704.09;;;10.16;100.00
9746;BME280;4912;50.836;12.958;2024-03-02T03:21:29;96710.78;;;10.04;100.00
9746;BME280;4912;50.836;12.958;2024-03-02T03:24:03;96714.50;;;9.95;100.00
9746;BME280;4912;50.836;12.958;2024-03-02T03:26:35;96715.03;;;9.99;100.00
9746;BME280;4912;50.836;12.958;2024-03-02T03:29:06;96722.56;;;9.99;100.00
9746;BME280;4912;50.836;12.958;2024-03-02T03:31:37;96719.94;;;9.90;100.00
9746;BME280;4912;50.836;12.958;2024-03-02T03:34:08;96719.47;;;9.91;100.00
9746;BME280;4912;50.836;12.958;2024-03-02T03:36:39;96716.47;;;9.89;100.00
9746;BME280;4912;50.836;12.958;2024-03-02T03:39:14;96713.41;;;9.87;100.00
9746;BME280;4912;50.836;12.958;2024-03-02T03:41:45;96711.66;;;9.90;100.00
9746;BME280;4912;50.836;12.958;2024-03-02T03:44:16;96715.69;;;9.89;100.00
9746;BME280;4912;50.836;12.958;2024-03-02T03:46:47;96713.41;;;9.87;100.00
9746;BME280;4912;50.836;12.958;2024-03-02T03:49:17;96720.47;;;9.88;100.00
9746;BME280;4912;50.836;12.958;2024-03-02T03:51:48;96721.19;;;9.83;100.00
9746;BME280;4912;50.836;12.958;2024-03-02T03:54:25;96721.19;;;9.83;100.00
9746;BME280;4912;50.836;12.958;2024-03-02T03:56:55;96724.91;;;9.80;100.00
9746;BME280;4912;50.836;12.958;2024-03-02T03:59:26;96716.34;;;9.78;100.00
9746;BME280;4912;50.836;12.958;2024-03-02T04:01:57;96728.75;;;9.88;100.00
9746;BME280;4912;50.836;12.958;2024-03-02T04:04:27;96721.00;;;9.92;100.00
9746;BME280;4912;50.836;12.958;2024-03-02T04:06:58;96725.75;;;9.92;100.00
9746;BME280;4912;50.836;12.958;2024-03-02T04:09:31;96727.28;;;9.93;100.00
9746;BME280;4912;50.836;12.958;2024-03-02T04:12:02;96723.75;;;9.92;100.00
9746;BME280;4912;50.836;12.958;2024-03-02T04:14:33;96738.38;;;9.98;100.00
9746;BME280;4912;50.836;12.958;2024-03-02T04:17:05;96741.94;;;10.04;100.00
9746;BME280;4912;50.836;12.958;2024-03-02T04:19:35;96736.91;;;10.03;100.00
9746;BME280;4912;50.836;12.958;2024-03-02T04:22:06;96735.66;;;10.04;100.00
9746;BME280;4912;50.836;12.958;2024-03-02T04:24:49;96735.38;;;10.02;100.00
9746;BME280;4912;50.836;12.958;2024-03-02T04:27:20;96735.38;;;10.02;100.00
9746;BME280;4912;50.836;12.958;2024-03-02T04:29:51;96741.66;;;10.02;100.00
9746;BME280;4912;50.836;12.958;2024-03-02T04:32:21;96748.94;;;10.00;100.00
9746;BME280;4912;50.836;12.958;2024-03-02T04:34:52;96745.31;;;9.88;100.00
9746;BME280;4912;50.836;12.958;2024-03-02T04:37:25;96757.09;;;9.83;100.00
9746;BME280;4912;50.836;12.958;2024-03-02T04:39:58;96767.59;;;9.79;100.00
9746;BME280;4912;50.836;12.958;2024-03-02T04:42:29;96772.56;;;9.75;100.00
9746;BME280;4912;50.836;12.958;2024-03-02T04:45:00;96779.34;;;9.74;100.00
9746;BME280;4912;50.836;12.958;2024-03-02T04:47:30;96779.34;;;9.74;100.00
9746;BME280;4912;50.836;12.958;2024-03-02T04:50:01;96777.56;;;9.71;100.00
9746;BME280;4912;50.836;12.958;2024-03-02T04:52:32;96780.28;;;9.65;100.00
9746;BME280;4912;50.836;12.958;2024-03-02T04:55:06;96779.28;;;9.68;100.00
9746;BME280;4912;50.836;12.958;2024-03-02T04:58:12;96779.09;;;9.72;100.00
9746;BME280;4912;50.836;12.958;2024-03-02T05:00:43;96778.63;;;9.79;100.00
9746;BME280;4912;50.836;12.958;2024-03-02T05:03:14;96781.19;;;9.82;100.00
9746;BME280;4912;50.836;12.958;2024-03-02T05:05:44;96779.25;;;9.89;100.00
9746;BME280;4912;50.836;12.958;2024-03-02T05:08:15;96784.00;;;9.88;100.00
9746;BME280;4912;50.836;12.958;2024-03-02T05:10:49;96787.03;;;9.90;100.00
9746;BME280;4912;50.836;12.958;2024-03-02T05:13:19;96784.88;;;10.00;100.00
9746;BME280;4912;50.836;12.958;2024-03-02T05:15:48;96788.16;;;10.04;100.00
9746;BME280;4912;50.836;12.958;2024-03-02T05:18:19;96783.13;;;10.02;100.00
9746;BME280;4912;50.836;12.958;2024-03-02T05:20:51;96792.16;;;10.03;100.00
9746;BME280;4912;50.836;12.958;2024-03-02T05:23:22;96790.69;;;10.07;100.00
9746;BME280;4912;50.836;12.958;2024-03-02T05:25:55;96787.25;;;10.12;100.00
9746;BME280;4912;50.836;12.958;2024-03-02T05:28:26;96785.97;;;10.13;100.00
9746;BME280;4912;50.836;12.958;2024-03-02T05:30:57;96789.16;;;10.01;100.00
9746;BME280;4912;50.836;12.958;2024-03-02T05:33:28;96793.00;;;9.83;100.00
9746;BME280;4912;50.836;12.958;2024-03-02T05:36:00;96792.44;;;9.79;100.00
9746;BME280;4912;50.836;12.958;2024-03-02T05:38:38;96793.44;;;9.76;100.00
9746;BME280;4912;50.836;12.958;2024-03-02T05:41:11;96793.16;;;9.74;100.00
9746;BME280;4912;50.836;12.958;2024-03-02T05:43:42;96806.00;;;9.77;100.00
9746;BME280;4912;50.836;12.958;2024-03-02T05:46:13;96807.28;;;9.81;100.00
9746;BME280;4912;50.836;12.958;2024-03-02T05:48:45;96807.34;;;9.87;100.00
9746;BME280;4912;50.836;12.958;2024-03-02T05:51:17;96817.63;;;9.86;100.00
9746;BME280;4912;50.836;12.958;2024-03-02T05:53:50;96806.63;;;9.92;100.00
9746;BME280;4912;50.836;12.958;2024-03-02T05:56:28;96809.75;;;10.00;100.00
9746;BME280;4912;50.836;12.958;2024-03-02T05:59:00;96810.81;;;10.08;100.00
9746;BME280;4912;50.836;12.958;2024-03-02T06:01:41;96813.09;;;10.09;100.00
9746;BME280;4912;50.836;12.958;2024-03-02T06:04:13;96822.13;;;10.10;100.00
9746;BME280;4912;50.836;12.958;2024-03-02T06:06:43;96821.38;;;10.09;100.00
9746;BME280;4912;50.836;12.958;2024-03-02T06:09:17;96827.59;;;10.04;100.00
9746;BME280;4912;50.836;12.958;2024-03-02T06:11:52;96829.09;;;10.00;100.00
9746;BME280;4912;50.836;12.958;2024-03-02T06:14:23;96837.63;;;10.02;100.00
9746;BME280;4912;50.836;12.958;2024-03-02T06:16:54;96831.03;;;9.94;100.00
9746;BME280;4912;50.836;12.958;2024-03-02T06:19:25;96838.13;;;10.00;100.00
9746;BME280;4912;50.836;12.958;2024-03-02T06:21:56;96828.38;;;10.05;100.00
9746;BME280;4912;50.836;12.958;2024-03-02T06:24:28;96836.22;;;10.12;100.00
9746;BME280;4912;50.836;12.958;2024-03-02T06:27:04;96828.94;;;10.14;100.00
9746;BME280;4912;50.836;12.958;2024-03-02T06:29:38;96835.56;;;10.17;100.00
9746;BME280;4912;50.836;12.958;2024-03-02T06:32:10;96841.59;;;10.21;100.00
9746;BME280;4912;50.836;12.958;2024-03-02T06:34:41;96840.66;;;10.24;100.00
9746;BME280;4912;50.836;12.958;2024-03-02T06:37:18;96850.44;;;10.25;100.00
9746;BME280;4912;50.836;12.958;2024-03-02T06:40:01;96842.22;;;10.31;100.00
9746;BME280;4912;50.836;12.958;2024-03-02T06:42:47;96849.53;;;10.34;100.00
9746;BME280;4912;50.836;12.958;2024-03-02T06:45:24;96852.34;;;10.39;100.00
9746;BME280;4912;50.836;12.958;2024-03-02T06:47:56;96850.84;;;10.44;100.00
9746;BME280;4912;50.836;12.958;2024-03-02T06:50:34;96848.66;;;10.48;100.00
9746;BME280;4912;50.836;12.958;2024-03-02T06:53:07;96846.41;;;10.52;100.00
9746;BME280;4912;50.836;12.958;2024-03-02T06:55:37;96853.72;;;10.55;100.00
9746;BME280;4912;50.836;12.958;2024-03-02T06:58:16;96858.75;;;10.56;100.00
9746;BME280;4912;50.836;12.958;2024-03-02T07:00:47;96855.22;;;10.56;100.00
9746;BME280;4912;50.836;12.958;2024-03-02T07:03:18;96854.50;;;10.61;100.00
9746;BME280;4912;50.836;12.958;2024-03-02T07:05:49;96847.00;;;10.67;100.00
9746;BME280;4912;50.836;12.958;2024-03-02T07:08:24;96851.09;;;10.72;100.00
9746;BME280;4912;50.836;12.958;2024-03-02T07:10:57;96847.81;;;10.73;100.00
9746;BME280;4912;50.836;12.958;2024-03-02T07:13:31;96849.06;;;10.72;100.00
9746;BME280;4912;50.836;12.958;2024-03-02T07:16:02;96853.63;;;10.75;100.00
9746;BME280;4912;50.836;12.958;2024-03-02T07:19:18;96852.59;;;10.73;100.00
9746;BME280;4912;50.836;12.958;2024-03-02T07:21:49;96843.81;;;10.74;100.00
9746;BME280;4912;50.836;12.958;2024-03-02T07:24:20;96858.63;;;10.71;100.00
9746;BME280;4912;50.836;12.958;2024-03-02T07:26:52;96856.13;;;10.73;100.00
9746;BME280;4912;50.836;12.958;2024-03-02T07:29:26;96847.59;;;10.77;100.00
9746;BME280;4912;50.836;12.958;2024-03-02T07:31:56;96861.19;;;10.80;100.00
9746;BME280;4912;50.836;12.958;2024-03-02T07:34:27;96863.53;;;10.87;100.00
9746;BME280;4912;50.836;12.958;2024-03-02T07:37:00;96869.84;;;10.93;100.00
9746;BME280;4912;50.836;12.958;2024-03-02T07:39:33;96869.38;;;10.95;99.00
9746;BME280;4912;50.836;12.958;2024-03-02T07:42:04;96867.84;;;10.94;98.09
9746;BME280;4912;50.836;12.958;2024-03-02T07:44:38;96872.94;;;11.01;98.89
9746;BME280;4912;50.836;12.958;2024-03-02T07:47:09;96867.63;;;11.03;97.66
9746;BME280;4912;50.836;12.958;2024-03-02T07:49:42;96870.47;;;11.14;96.95
9746;BME280;4912;50.836;12.958;2024-03-02T07:52:17;96873.81;;;11.24;95.11
9746;BME280;4912;50.836;12.958;2024-03-02T07:54:48;96867.81;;;11.31;94.92
9746;BME280;4912;50.836;12.958;2024-03-02T07:57:20;96873.38;;;11.36;94.80
9746;BME280;4912;50.836;12.958;2024-03-02T07:59:53;96875.16;;;11.39;94.32
9746;BME280;4912;50.836;12.958;2024-03-02T08:02:38;96878.41;;;11.38;94.34
9746;BME280;4912;50.836;12.958;2024-03-02T08:05:10;96880.19;;;11.35;94.40
9746;BME280;4912;50.836;12.958;2024-03-02T08:07:47;96882.44;;;11.37;94.19
9746;BME280;4912;50.836;12.958;2024-03-02T08:10:20;96882.94;;;11.35;93.49
9746;BME280;4912;50.836;12.958;2024-03-02T08:12:53;96880.41;;;11.37;93.00
9746;BME280;4912;50.836;12.958;2024-03-02T08:15:28;96885.19;;;11.37;92.59
9746;BME280;4912;50.836;12.958;2024-03-02T08:17:59;96883.47;;;11.39;92.04
9746;BME280;4912;50.836;12.958;2024-03-02T08:20:30;96891.53;;;11.43;91.34
9746;BME280;4912;50.836;12.958;2024-03-02T08:23:01;96875.19;;;11.45;91.48
9746;BME280;4912;50.836;12.958;2024-03-02T08:25:32;96886.25;;;11.45;91.84
9746;BME280;4912;50.836;12.958;2024-03-02T08:28:03;96892.28;;;11.43;92.33
9746;BME280;4912;50.836;12.958;2024-03-02T08:30:38;96888.28;;;11.44;92.50
9746;BME280;4912;50.836;12.958;2024-03-02T08:33:08;96881.97;;;11.44;92.57
9746;BME280;4912;50.836;12.958;2024-03-02T08:35:39;96887.75;;;11.40;92.03
9746;BME280;4912;50.836;12.958;2024-03-02T08:38:10;96891.28;;;11.41;92.70
9746;BME280;4912;50.836;12.958;2024-03-02T08:40:41;96899.09;;;11.42;93.26
9746;BME280;4912;50.836;12.958;2024-03-02T08:43:12;96903.88;;;11.42;93.09
9746;BME280;4912;50.836;12.958;2024-03-02T08:45:45;96898.53;;;11.33;93.27
9746;BME280;4912;50.836;12.958;2024-03-02T08:48:16;96902.53;;;11.32;93.44
9746;BME280;4912;50.836;12.958;2024-03-02T08:50:48;96903.84;;;11.36;93.62
9746;BME280;4912;50.836;12.958;2024-03-02T08:53:18;96909.88;;;11.35;93.53
9746;BME280;4912;50.836;12.958;2024-03-02T08:55:49;96908.09;;;11.32;93.76
9746;BME280;4912;50.836;12.958;2024-03-02T08:58:24;96916.41;;;11.32;94.04
9746;BME280;4912;50.836;12.958;2024-03-02T09:00:58;96921.69;;;11.30;93.50
9746;BME280;4912;50.836;12.958;2024-03-02T09:03:29;96926.66;;;11.26;93.84
9746;BME280;4912;50.836;12.958;2024-03-02T09:06:01;96926.66;;;11.26;94.16
9746;BME280;4912;50.836;12.958;2024-03-02T09:08:31;96931.44;;;11.25;93.96
9746;BME280;4912;50.836;12.958;2024-03-02T09:11:04;96926.34;;;11.13;95.08
9746;BME280;4912;50.836;12.958;2024-03-02T09:13:35;96931.69;;;11.22;95.03
9746;BME280;4912;50.836;12.958;2024-03-02T09:16:09;96934.50;;;11.27;94.85
9746;BME280;4912;50.836;12.958;2024-03-02T09:18:40;96927.94;;;11.25;94.61
9746;BME280;4912;50.836;12.958;2024-03-02T09:21:10;96930.66;;;11.19;95.38
9746;BME280;4912;50.836;12.958;2024-03-02T09:23:42;96925.66;;;11.23;95.28
9746;BME280;4912;50.836;12.958;2024-03-02T09:26:14;96931.25;;;11.29;95.03
9746;BME280;4912;50.836;12.958;2024-03-02T09:28:47;96930.97;;;11.27;95.31
9746;BME280;4912;50.836;12.958;2024-03-02T09:31:20;96930.25;;;11.32;95.22
9746;BME280;4912;50.836;12.958;2024-03-02T09:33:51;96930.06;;;11.41;94.65
9746;BME280;4912;50.836;12.958;2024-03-02T09:36:22;96929.84;;;11.50;94.45
9746;BME280;4912;50.836;12.958;2024-03-02T09:38:53;96925.84;;;11.57;93.69
9746;BME280;4912;50.836;12.958;2024-03-02T09:41:24;96927.44;;;11.69;92.54
9746;BME280;4912;50.836;12.958;2024-03-02T09:43:55;96920.97;;;11.77;91.47
9746;BME280;4912;50.836;12.958;2024-03-02T09:46:29;96925.00;;;11.82;90.50
9746;BME280;4912;50.836;12.958;2024-03-02T09:49:00;96920.72;;;11.86;89.54
9746;BME280;4912;50.836;12.958;2024-03-02T09:51:31;96913.47;;;11.95;89.88
9746;BME280;4912;50.836;12.958;2024-03-02T09:54:02;96922.56;;;12.01;89.26
9746;BME280;4912;50.836;12.958;2024-03-02T09:56:47;96910.00;;;12.16;89.18
9746;BME280;4912;50.836;12.958;2024-03-02T09:59:19;96913.81;;;12.36;88.12
9746;BME280;4912;50.836;12.958;2024-03-02T10:02:00;96912.59;;;12.48;85.62
9746;BME280;4912;50.836;12.958;2024-03-02T10:04:34;96910.31;;;12.52;84.28
9746;BME280;4912;50.836;12.958;2024-03-02T10:07:15;96904.50;;;12.55;83.48
9746;BME280;4912;50.836;12.958;2024-03-02T10:09:47;96918.16;;;12.64;83.29
9746;BME280;4912;50.836;12.958;2024-03-02T10:12:19;96915.38;;;12.76;82.98
9746;BME280;4912;50.836;12.958;2024-03-02T10:15:03;96910.59;;;12.82;81.36
9746;BME280;4912;50.836;12.958;2024-03-02T10:17:39;96905.78;;;12.93;80.85
9746;BME280;4912;50.836;12.958;2024-03-02T10:20:23;96907.31;;;13.00;79.81
9746;BME280;4912;50.836;12.958;2024-03-02T10:23:09;96911.59;;;13.01;80.28
9746;BME280;4912;50.836;12.958;2024-03-02T10:25:41;96906.56;;;13.16;80.40
9746;BME280;4912;50.836;12.958;2024-03-02T10:28:24;96897.16;;;13.47;78.32
9746;BME280;4912;50.836;12.958;2024-03-02T10:30:55;96896.56;;;13.76;76.39
9746;BME280;4912;50.836;12.958;2024-03-02T10:33:28;96890.38;;;14.00;75.09
9746;BME280;4912;50.836;12.958;2024-03-02T10:35:59;96890.97;;;14.28;73.88
9746;BME280;4912;50.836;12.958;2024-03-02T10:38:31;96883.41;;;14.70;73.00
9746;BME280;4912;50.836;12.958;2024-03-02T10:41:02;96890.38;;;15.66;69.95
9746;BME280;4912;50.836;12.958;2024-03-02T10:43:33;96894.59;;;15.91;68.66
9746;BME280;4912;50.836;12.958;2024-03-02T10:46:04;96894.69;;;16.05;67.26
9746;BME280;4912;50.836;12.958;2024-03-02T10:48:37;96895.84;;;16.33;67.21
9746;BME280;4912;50.836;12.958;2024-03-02T10:51:10;96892.44;;;16.22;66.71
9746;BME280;4912;50.836;12.958;2024-03-02T10:53:42;96889.97;;;16.18;66.29
9746;BME280;4912;50.836;12.958;2024-03-02T10:56:16;96886.34;;;16.42;66.15
9746;BME280;4912;50.836;12.958;2024-03-02T10:58:55;96885.25;;;16.45;64.61
9746;BME280;4912;50.836;12.958;2024-03-02T11:01:33;96880.75;;;16.42;63.88
9746;BME280;4912;50.836;12.958;2024-03-02T11:04:08;96889.34;;;16.44;63.94
9746;BME280;4912;50.836;12.958;2024-03-02T11:06:46;96877.66;;;16.64;63.50
9746;BME280;4912;50.836;12.958;2024-03-02T11:09:21;96868.78;;;17.50;61.88
9746;BME280;4912;50.836;12.958;2024-03-02T11:12:03;96867.41;;;18.44;58.23
9746;BME280;4912;50.836;12.958;2024-03-02T11:14:42;96867.81;;;18.48;56.96
9746;BME280;4912;50.836;12.958;2024-03-02T11:17:17;96864.97;;;18.61;57.71
9746;BME280;4912;50.836;12.958;2024-03-02T11:19:54;96867.97;;;18.63;56.98
9746;BME280;4912;50.836;12.958;2024-03-02T11:22:26;96868.41;;;18.67;56.72
9746;BME280;4912;50.836;12.958;2024-03-02T11:25:00;96859.91;;;18.80;55.58
9746;BME280;4912;50.836;12.958;2024-03-02T11:30:49;96863.66;;;19.73;52.88
9746;BME280;4912;50.836;12.958;2024-03-02T11:33:25;96863.13;;;20.84;51.04
9746;BME280;4912;50.836;12.958;2024-03-02T11:36:02;96870.63;;;21.05;48.18
9746;BME280;4912;50.836;12.958;2024-03-02T11:38:43;96871.19;;;20.96;47.90
9746;BME280;4912;50.836;12.958;2024-03-02T11:41:17;96871.88;;;20.66;50.06
9746;BME280;4912;50.836;12.958;2024-03-02T11:43:50;96872.03;;;20.09;51.52
9746;BME280;4912;50.836;12.958;2024-03-02T11:46:25;96861.66;;;19.53;53.55
9746;BME280;4912;50.836;12.958;2024-03-02T11:48:56;96855.13;;;19.09;54.06
9746;BME280;4912;50.836;12.958;2024-03-02T11:51:30;96856.59;;;18.61;54.42
9746;BME280;4912;50.836;12.958;2024-03-02T11:54:04;96853.25;;;18.15;55.42
9746;BME280;4912;50.836;12.958;2024-03-02T11:56:37;96862.75;;;17.86;57.97
9746;BME280;4912;50.836;12.958;2024-03-02T11:59:11;96861.72;;;17.76;58.32
9746;BME280;4912;50.836;12.958;2024-03-02T12:01:45;96858.72;;;18.21;55.74
9746;BME280;4912;50.836;12.958;2024-03-02T12:04:19;96848.25;;;19.67;51.40
9746;BME280;4912;50.836;12.958;2024-03-02T12:06:56;96843.06;;;21.34;46.27
9746;BME280;4912;50.836;12.958;2024-03-02T12:09:30;96839.84;;;20.92;46.15
9746;BME280;4912;50.836;12.958;2024-03-02T12:12:02;96835.53;;;20.60;47.43
9746;BME280;4912;50.836;12.958;2024-03-02T12:14:38;96843.75;;;20.43;47.54
9746;BME280;4912;50.836;12.958;2024-03-02T12:17:09;96829.69;;;20.43;47.79
9746;BME280;4912;50.836;12.958;2024-03-02T12:19:42;96822.63;;;21.03;46.68
9746;BME280;4912;50.836;12.958;2024-03-02T12:22:16;96814.19;;;22.43;44.62
9746;BME280;4912;50.836;12.958;2024-03-02T12:24:47;96819.69;;;23.58;40.99
9746;BME280;4912;50.836;12.958;2024-03-02T12:27:18;96820.09;;;24.23;39.10
9746;BME280;4912;50.836;12.958;2024-03-02T12:29:49;96822.66;;;24.82;37.81
9746;BME280;4912;50.836;12.958;2024-03-02T12:32:23;96816.03;;;25.53;37.40
9746;BME280;4912;50.836;12.958;2024-03-02T12:34:55;96814.00;;;26.01;35.91
9746;BME280;4912;50.836;12.958;2024-03-02T12:37:28;96815.03;;;26.06;34.11
9746;BME280;4912;50.836;12.958;2024-03-02T12:39:59;96816.69;;;26.09;34.82
9746;BME280;4912;50.836;12.958;2024-03-02T12:42:30;96816.16;;;25.36;34.72
9746;BME280;4912;50.836;12.958;2024-03-02T12:45:01;96808.63;;;24.04;36.53
9746;BME280;4912;50.836;12.958;2024-03-02T12:47:33;96811.41;;;23.60;37.85
9746;BME280;4912;50.836;12.958;2024-03-02T12:50:05;96806.31;;;23.76;37.38
9746;BME280;4912;50.836;12.958;2024-03-02T12:52:41;96802.56;;;24.25;36.28
9746;BME280;4912;50.836;12.958;2024-03-02T12:55:15;96799.06;;;23.31;38.38
9746;BME280;4912;50.836;12.958;2024-03-02T12:57:46;96803.06;;;22.13;40.04
9746;BME280;4912;50.836;12.958;2024-03-02T13:00:19;96803.47;;;21.39;41.58
9746;BME280;4912;50.836;12.958;2024-03-02T13:02:51;96806.69;;;20.98;43.54
9746;BME280;4912;50.836;12.958;2024-03-02T13:05:30;96803.28;;;20.46;44.73
9746;BME280;4912;50.836;12.958;2024-03-02T13:08:07;96793.91;;;20.36;45.43
9746;BME280;4912;50.836;12.958;2024-03-02T13:10:38;96803.13;;;20.82;44.48
9746;BME280;4912;50.836;12.958;2024-03-02T13:13:09;96802.19;;;21.17;43.62
9746;BME280;4912;50.836;12.958;2024-03-02T13:15:40;96793.94;;;20.59;44.99
9746;BME280;4912;50.836;12.958;2024-03-02T13:18:13;96802.00;;;20.03;46.22
9746;BME280;4912;50.836;12.958;2024-03-02T13:20:44;96789.00;;;19.78;46.84
9746;BME280;4912;50.836;12.958;2024-03-02T13:23:17;96789.69;;;20.22;46.72
9746;BME280;4912;50.836;12.958;2024-03-02T13:25:48;96795.03;;;21.39;44.77
9746;BME280;4912;50.836;12.958;2024-03-02T13:28:19;96775.75;;;21.91;43.37
9746;BME280;4912;50.836;12.958;2024-03-02T13:30:50;96777.19;;;22.07;42.63
9746;BME280;4912;50.836;12.958;2024-03-02T13:33:21;96784.19;;;21.91;42.50
9746;BME280;4912;50.836;12.958;2024-03-02T13:35:52;96785.94;;;21.79;43.26
9746;BME280;4912;50.836;12.958;2024-03-02T13:38:26;96787.56;;;23.11;40.32
9746;BME280;4912;50.836;12.958;2024-03-02T13:40:57;96775.56;;;23.97;38.15